Portada
METAR-TAF:

METAR-TAF

Aeroports :

Woomera, Austràlia

latitud: 31-08S, longitud: 136-49E, altitud: 165 m

Observació

L'informe es va fer fa 37 minuts, a les 06:30 UTC
Vent 7 kt del Sud
Temperatura 24°C
Humitat 11%
Pressió 1021 hPa
Visibilitat 10 km o més

METAR: YPWR 250630Z AUTO 19007KT 9999 // NCD 24/M08 Q1021 RF00.0/000.0

Hora: 16:37 (07:07 UTC)

Pronòstic

L'informe es va fer fa 1 hora i 58 minuts, a les 05:09 UTC
Pronòstic vàlid del 25 a les 06 UTC al 25 a les 24 UTC
Vent 10 kt del Est/Sud-Est
Visibilitat 10 km o més
sense núvols per sota de 1500 mi sense presència de cumulonimbus.
A partir de les 25 a les 1800 UTC
Vent 8 kt del Est/Nord-Est
Visibilitat 10 km o més
sense núvols per sota de 1500 mi sense presència de cumulonimbus.

TAF: YPWR 250509Z 2506/2524 12010KT CAVOK FM251800 06008KT CAVOK

Observacions i pronòstics meteorològics de més de 4000 aeroports (METAR i TAF).

Les estacions disponibles són els punts grocs i vermells al mapa.

Posi el ratolí al punt desitjat per veure el nom de l'estació.

Feu clic per veure les observacions i els pronòstics meteorològics.

Per canviar el mapa: feu clic els botons verds amb una creu de color negre per apropar; al botó verd amb un guió per allunyar la imatge; o en les fletxes verdes per a mapes adjacents.


METAR-TAF: